createdAt,value
2019-05-30T00:01:06.371Z,7.45
2019-05-30T00:03:33.585Z,7.03
2019-05-30T00:06:00.862Z,7.03
2019-05-30T00:08:28.876Z,6.95
2019-05-30T00:10:56.529Z,7.37
2019-05-30T00:13:23.750Z,7.35
2019-05-30T00:15:50.782Z,6.55
2019-05-30T00:18:17.828Z,6.55
2019-05-30T00:20:46.732Z,6.17
2019-05-30T00:23:14.087Z,6.65
2019-05-30T00:25:41.124Z,6.90
2019-05-30T00:28:08.345Z,8.18
2019-05-30T00:30:35.746Z,7.78
2019-05-30T00:33:03.600Z,7.22
2019-05-30T00:35:31.772Z,8.13
2019-05-30T00:37:59.723Z,7.95
2019-05-30T00:40:27.230Z,8.88
2019-05-30T00:42:55.804Z,8.73
2019-05-30T00:45:23.373Z,10.05
2019-05-30T00:47:50.430Z,10.15
2019-05-30T00:50:17.469Z,14.87
2019-05-30T00:52:44.505Z,15.85
2019-05-30T00:55:11.874Z,17.27
2019-05-30T00:57:39.215Z,21.33
2019-05-30T01:00:07.168Z,20.75
2019-05-30T01:02:34.280Z,18.67
2019-05-30T01:05:03.372Z,11.30
2019-05-30T01:07:30.986Z,11.43
2019-05-30T01:09:59.105Z,11.43
2019-05-30T01:12:26.517Z,12.00
2019-05-30T01:14:53.876Z,15.08
2019-05-30T01:17:21.234Z,14.15
2019-05-30T01:19:48.277Z,15.63
2019-05-30T01:22:15.574Z,16.17
2019-05-30T01:24:42.623Z,15.48
2019-05-30T01:27:09.657Z,16.50
2019-05-30T01:29:36.982Z,15.72
2019-05-30T01:32:04.017Z,16.27
2019-05-30T01:34:31.075Z,17.37
2019-05-30T01:36:59.805Z,19.05
2019-05-30T01:39:26.979Z,20.97
2019-05-30T01:41:53.994Z,23.67
2019-05-30T01:44:21.269Z,25.43
2019-05-30T01:46:48.305Z,25.05
2019-05-30T01:49:15.358Z,23.60
2019-05-30T01:51:42.393Z,23.70
2019-05-30T01:54:09.431Z,21.75
2019-05-30T01:56:36.758Z,20.60
2019-05-30T01:59:04.795Z,18.73
2019-05-30T02:01:32.224Z,18.80
2019-05-30T02:03:59.438Z,18.17
2019-05-30T02:06:26.490Z,15.43
2019-05-30T02:08:53.858Z,15.72
2019-05-30T02:11:21.199Z,15.75
2019-05-30T02:13:48.240Z,14.13
2019-05-30T02:16:15.293Z,15.20
2019-05-30T02:18:42.589Z,15.95
2019-05-30T02:21:10.079Z,16.85
2019-05-30T02:23:37.466Z,17.02
2019-05-30T02:26:06.199Z,16.95
2019-05-30T02:28:33.710Z,16.40
2019-05-30T02:31:01.074Z,15.55
2019-05-30T02:33:29.503Z,14.30
2019-05-30T02:35:56.550Z,14.80
2019-05-30T02:38:23.953Z,14.53
2019-05-30T02:40:51.008Z,14.78
2019-05-30T02:43:18.354Z,14.95
2019-05-30T02:45:45.402Z,15.58
2019-05-30T02:48:12.756Z,16.42
2019-05-30T02:50:39.874Z,16.57
2019-05-30T02:53:08.414Z,16.70
2019-05-30T02:55:37.379Z,17.30
2019-05-30T02:58:06.216Z,17.82
2019-05-30T03:00:33.833Z,18.92
2019-05-30T03:03:01.853Z,18.35
2019-05-30T03:05:29.979Z,19.05
2019-05-30T03:07:57.013Z,18.05
2019-05-30T03:10:24.144Z,19.25
2019-05-30T03:12:51.183Z,18.67
2019-05-30T03:15:18.574Z,16.50
2019-05-30T03:17:45.651Z,16.70
2019-05-30T03:20:21.943Z,17.35
2019-05-30T03:22:41.683Z,17.60
2019-05-30T03:25:11.107Z,17.37
2019-05-30T03:27:37.533Z,16.57
2019-05-30T03:30:09.505Z,17.15
2019-05-30T03:35:06.201Z,18.48
2019-05-30T03:37:32.780Z,17.60
2019-05-30T03:40:00.159Z,15.85
2019-05-30T03:42:27.573Z,14.65
2019-05-30T03:44:54.927Z,14.75
2019-05-30T03:47:21.987Z,12.63
2019-05-30T03:49:49.036Z,12.68
2019-05-30T03:52:17.245Z,12.47
2019-05-30T03:54:44.873Z,12.47
2019-05-30T03:57:13.980Z,11.05
2019-05-30T03:59:41.028Z,10.70
2019-05-30T04:02:09.515Z,11.60
2019-05-30T04:04:37.458Z,11.48
2019-05-30T04:07:06.702Z,9.75
2019-05-30T04:09:33.822Z,10.80
2019-05-30T04:12:01.162Z,10.40
2019-05-30T04:14:28.204Z,9.70
2019-05-30T04:16:55.569Z,7.85
2019-05-30T04:19:22.672Z,8.68
2019-05-30T04:21:50.072Z,8.43
2019-05-30T04:24:19.617Z,8.60
2019-05-30T04:26:47.137Z,7.72
2019-05-30T04:29:15.036Z,7.08
2019-05-30T04:31:43.244Z,8.00
2019-05-30T04:34:12.444Z,7.80
2019-05-30T04:36:40.038Z,8.28
2019-05-30T04:39:08.629Z,7.40
2019-05-30T04:41:36.094Z,7.83
2019-05-30T04:44:03.445Z,7.37
2019-05-30T04:46:30.483Z,7.55
2019-05-30T04:48:57.534Z,7.05
2019-05-30T04:51:24.813Z,7.08
2019-05-30T04:53:51.866Z,7.40
2019-05-30T04:56:21.226Z,6.62
2019-05-30T04:58:47.928Z,7.03
2019-05-30T05:01:15.582Z,7.10
2019-05-30T05:03:46.593Z,7.08
2019-05-30T05:06:13.817Z,7.17
2019-05-30T05:08:41.282Z,6.55
2019-05-30T05:11:12.277Z,7.50
2019-05-30T05:13:37.331Z,6.90
2019-05-30T05:16:22.067Z,6.55
2019-05-30T05:18:33.450Z,6.65
2019-05-30T05:21:00.479Z,6.85
2019-05-30T05:23:27.528Z,7.05
2019-05-30T05:26:01.043Z,6.58
2019-05-30T05:28:24.065Z,6.85
2019-05-30T05:30:51.474Z,6.62
2019-05-30T05:33:18.838Z,6.80
2019-05-30T05:35:46.180Z,6.50
2019-05-30T05:38:13.248Z,7.35
2019-05-30T05:40:40.591Z,6.55
2019-05-30T05:43:07.645Z,6.67
2019-05-30T05:45:34.994Z,6.87
2019-05-30T05:48:02.041Z,6.67
2019-05-30T05:50:29.082Z,6.72
2019-05-30T05:52:56.380Z,7.28
2019-05-30T05:55:23.416Z,7.28
2019-05-30T05:57:50.717Z,6.58
2019-05-30T06:00:18.898Z,6.20
2019-05-30T06:02:46.083Z,8.98
2019-05-30T06:05:13.121Z,7.75
2019-05-30T06:07:40.468Z,8.05
2019-05-30T06:10:07.520Z,7.80
2019-05-30T06:12:34.874Z,7.50
2019-05-30T06:15:02.672Z,7.20
2019-05-30T06:17:29.869Z,6.20
2019-05-30T06:19:56.918Z,7.80
2019-05-30T06:22:23.962Z,7.72
2019-05-30T06:24:51.361Z,6.50
2019-05-30T06:27:20.055Z,7.12
2019-05-30T06:29:47.209Z,7.12
2019-05-30T06:32:14.550Z,6.80
2019-05-30T06:34:41.677Z,8.00
2019-05-30T06:37:11.900Z,7.58
2019-05-30T06:39:37.462Z,6.80
2019-05-30T06:42:04.727Z,7.78
2019-05-30T06:44:32.140Z,7.15
2019-05-30T06:46:59.481Z,6.97
2019-05-30T06:49:26.945Z,6.40
2019-05-30T06:51:54.052Z,6.03
2019-05-30T06:54:22.059Z,6.97
2019-05-30T06:56:50.182Z,6.67
2019-05-30T06:59:17.239Z,6.17
2019-05-30T07:01:44.535Z,6.37
2019-05-30T07:04:12.339Z,6.40
2019-05-30T07:06:39.837Z,6.75
2019-05-30T07:09:07.416Z,6.30
2019-05-30T07:11:34.773Z,6.25
2019-05-30T07:14:01.826Z,5.62
2019-05-30T07:16:29.514Z,6.45
2019-05-30T07:18:57.722Z,6.25
2019-05-30T07:21:25.528Z,4.62
2019-05-30T07:23:52.652Z,5.05
2019-05-30T07:26:19.689Z,4.37
2019-05-30T07:28:47.097Z,4.72
2019-05-30T07:31:14.374Z,5.10
2019-05-30T07:33:41.686Z,3.58
2019-05-30T07:36:09.041Z,3.83
2019-05-30T07:38:36.073Z,4.15
2019-05-30T07:41:03.126Z,3.52
2019-05-30T07:43:31.571Z,3.77
2019-05-30T07:45:59.176Z,4.03
2019-05-30T07:51:29.057Z,4.40
2019-05-30T07:53:56.161Z,4.50
2019-05-30T07:56:23.519Z,4.15
2019-05-30T07:58:50.548Z,3.75
2019-05-30T08:01:17.920Z,3.50
2019-05-30T08:03:44.970Z,3.85
2019-05-30T08:06:12.342Z,4.08
2019-05-30T08:08:39.702Z,2.92
2019-05-30T08:11:09.952Z,11.08
2019-05-30T08:13:35.738Z,3.60
2019-05-30T08:16:03.110Z,3.10
2019-05-30T08:18:30.137Z,2.52
2019-05-30T08:20:57.482Z,2.77
2019-05-30T08:23:24.863Z,2.70
2019-05-30T08:25:51.901Z,2.60
2019-05-30T08:28:18.999Z,2.27
2019-05-30T08:30:46.402Z,2.50
2019-05-30T08:33:13.438Z,2.20
2019-05-30T08:35:49.213Z,2.35
2019-05-30T08:38:09.531Z,1.95
2019-05-30T08:40:37.718Z,1.90
2019-05-30T08:43:06.250Z,1.85
2019-05-30T08:45:33.735Z,2.33
2019-05-30T08:48:00.802Z,2.15
2019-05-30T08:50:28.201Z,2.40
2019-05-30T08:52:55.247Z,2.80
2019-05-30T08:55:22.297Z,2.70
2019-05-30T08:57:49.341Z,2.70
2019-05-30T09:00:16.389Z,2.20
2019-05-30T09:02:43.424Z,1.85
2019-05-30T09:05:10.823Z,2.10
2019-05-30T09:07:38.254Z,2.00
2019-05-30T09:10:05.464Z,2.27
2019-05-30T09:12:32.505Z,1.70
2019-05-30T09:14:59.540Z,1.70
2019-05-30T09:17:27.978Z,2.00
2019-05-30T09:19:55.010Z,1.50
2019-05-30T09:22:22.502Z,1.20
2019-05-30T09:24:49.837Z,1.20
2019-05-30T09:27:16.987Z,1.45
2019-05-30T09:29:44.754Z,1.32
2019-05-30T09:32:12.209Z,1.12
2019-05-30T09:34:40.257Z,1.22
2019-05-30T09:37:08.270Z,1.30
2019-05-30T09:39:35.614Z,1.12
2019-05-30T09:42:02.666Z,1.00
2019-05-30T09:44:30.009Z,1.10
2019-05-30T09:46:57.389Z,1.00
2019-05-30T09:49:24.720Z,0.95
2019-05-30T09:51:52.083Z,0.90
2019-05-30T09:54:19.130Z,1.05
2019-05-30T09:56:46.637Z,1.05
2019-05-30T09:59:14.037Z,0.90
2019-05-30T10:01:42.603Z,1.20
2019-05-30T10:04:10.390Z,1.20
2019-05-30T10:06:37.436Z,1.20
2019-05-30T10:09:04.788Z,1.02
2019-05-30T10:11:32.964Z,1.00
2019-05-30T10:14:00.322Z,0.80
2019-05-30T10:16:27.369Z,0.80
2019-05-30T10:18:54.724Z,0.90
2019-05-30T10:21:21.771Z,0.70
2019-05-30T10:23:49.449Z,0.80
2019-05-30T10:26:16.725Z,0.80
2019-05-30T10:28:44.974Z,0.80
2019-05-30T10:31:12.491Z,1.20
2019-05-30T10:33:39.540Z,0.90
2019-05-30T10:36:06.926Z,1.10
2019-05-30T10:38:33.984Z,0.95
2019-05-30T10:41:01.021Z,0.80
2019-05-30T10:43:29.401Z,0.60
2019-05-30T10:45:57.497Z,0.98
2019-05-30T10:48:24.594Z,0.82
2019-05-30T10:50:52.297Z,0.70
2019-05-30T10:53:19.756Z,0.80
2019-05-30T10:55:48.090Z,0.90
2019-05-30T10:58:15.596Z,0.88
2019-05-30T11:00:42.953Z,1.00
2019-05-30T11:03:10.003Z,0.70
2019-05-30T11:05:37.343Z,0.70
2019-05-30T11:08:06.357Z,1.00
2019-05-30T11:10:33.635Z,1.10
2019-05-30T11:13:05.840Z,0.80
2019-05-30T11:15:29.418Z,1.02
2019-05-30T11:17:57.730Z,1.00
2019-05-30T11:20:24.847Z,0.70
2019-05-30T11:22:53.057Z,0.80
2019-05-30T11:25:20.750Z,0.88
2019-05-30T11:27:48.578Z,0.90
2019-05-30T11:30:16.029Z,0.90
2019-05-30T11:32:43.187Z,0.68
2019-05-30T11:35:10.439Z,0.70
2019-05-30T11:37:37.765Z,0.80
2019-05-30T11:40:04.821Z,0.80
2019-05-30T11:42:31.852Z,1.00
2019-05-30T11:44:59.945Z,0.80
2019-05-30T11:47:27.036Z,0.93
2019-05-30T11:49:54.088Z,0.95
2019-05-30T11:52:21.120Z,0.80
2019-05-30T11:54:49.784Z,0.90
2019-05-30T11:57:16.863Z,0.70
2019-05-30T11:59:44.395Z,1.22
2019-05-30T12:02:11.477Z,0.85
2019-05-30T12:04:38.792Z,0.70
2019-05-30T12:07:05.829Z,0.80
2019-05-30T12:09:33.187Z,0.70
2019-05-30T12:12:01.440Z,0.85
2019-05-30T12:14:28.899Z,0.75
2019-05-30T12:16:55.941Z,0.80
2019-05-30T12:19:22.991Z,0.70
2019-05-30T12:21:51.475Z,0.75
2019-05-30T12:24:19.060Z,0.72
2019-05-30T12:26:46.085Z,0.98
2019-05-30T12:29:13.133Z,0.78
2019-05-30T12:31:40.416Z,0.90
2019-05-30T12:34:07.468Z,0.80
2019-05-30T12:36:34.514Z,0.75
2019-05-30T12:39:02.652Z,0.82
2019-05-30T12:41:29.877Z,0.90
2019-05-30T12:43:57.015Z,0.70
2019-05-30T12:46:24.036Z,0.70
2019-05-30T12:48:51.173Z,1.00
2019-05-30T12:51:18.610Z,0.70
2019-05-30T12:53:45.659Z,0.90
2019-05-30T12:56:12.699Z,0.90
2019-05-30T12:58:40.083Z,0.90
2019-05-30T13:01:07.133Z,1.00
2019-05-30T13:03:34.178Z,1.05
2019-05-30T13:06:03.427Z,1.10
2019-05-30T13:08:31.561Z,0.90
2019-05-30T13:10:59.442Z,1.07
2019-05-30T13:13:26.526Z,1.10
2019-05-30T13:15:54.542Z,0.95
2019-05-30T13:18:21.670Z,1.07
2019-05-30T13:20:49.064Z,1.20
2019-05-30T13:23:17.153Z,1.20
2019-05-30T13:25:44.465Z,0.93
2019-05-30T13:28:11.505Z,1.10
2019-05-30T13:30:38.616Z,1.30
2019-05-30T13:33:07.041Z,1.00
2019-05-30T13:35:34.092Z,1.47
2019-05-30T13:38:01.442Z,1.27
2019-05-30T13:40:28.552Z,1.17
2019-05-30T13:42:55.607Z,1.60
2019-05-30T13:45:22.661Z,1.40
2019-05-30T13:47:49.766Z,1.17
2019-05-30T13:50:16.829Z,1.20
2019-05-30T13:52:43.889Z,1.00
2019-05-30T13:55:12.103Z,1.10
2019-05-30T13:57:39.209Z,1.20
2019-05-30T14:00:06.264Z,1.30
2019-05-30T14:02:33.669Z,1.22
2019-05-30T14:05:02.134Z,1.40
2019-05-30T14:07:29.333Z,1.37
2019-05-30T14:09:56.654Z,0.98
2019-05-30T14:12:23.690Z,1.22
2019-05-30T14:14:50.748Z,1.22
2019-05-30T14:17:17.777Z,1.17
2019-05-30T14:19:45.148Z,1.50
2019-05-30T14:22:12.521Z,1.62
2019-05-30T14:24:39.553Z,1.42
2019-05-30T14:27:07.614Z,1.45
2019-05-30T14:29:34.817Z,1.60
2019-05-30T14:32:03.808Z,1.27
2019-05-30T14:34:30.894Z,1.55
2019-05-30T14:36:57.921Z,1.10
2019-05-30T14:39:24.959Z,1.32
2019-05-30T14:41:52.004Z,1.35
2019-05-30T14:44:20.343Z,1.25
2019-05-30T14:46:47.692Z,1.27
2019-05-30T14:49:14.750Z,1.50
2019-05-30T14:51:41.774Z,1.45
2019-05-30T14:54:08.921Z,1.47
2019-05-30T14:56:35.935Z,1.22
2019-05-30T14:59:02.969Z,1.25
2019-05-30T15:01:30.020Z,1.52
2019-05-30T15:03:57.054Z,1.02
2019-05-30T15:06:24.117Z,1.17
2019-05-30T15:08:51.149Z,1.12
2019-05-30T15:11:18.211Z,1.57
2019-05-30T15:13:45.236Z,1.30
2019-05-30T15:16:13.057Z,1.25
2019-05-30T15:18:40.194Z,1.17
2019-05-30T15:21:08.222Z,1.10
2019-05-30T15:23:35.315Z,1.30
2019-05-30T15:26:02.717Z,1.15
2019-05-30T15:28:29.749Z,1.17
2019-05-30T15:30:56.781Z,1.20
2019-05-30T15:33:24.163Z,1.30
2019-05-30T15:35:51.519Z,1.10
2019-05-30T15:38:18.636Z,1.15
2019-05-30T15:40:45.682Z,1.30
2019-05-30T15:43:13.454Z,1.30
2019-05-30T15:45:40.512Z,1.52
2019-05-30T15:48:08.275Z,1.20
2019-05-30T15:50:35.481Z,1.22
2019-05-30T15:53:02.555Z,1.02
2019-05-30T15:55:29.572Z,1.30
2019-05-30T15:57:56.626Z,1.02
2019-05-30T16:00:23.661Z,1.15
2019-05-30T16:02:50.728Z,1.07
2019-05-30T16:05:18.690Z,1.10
2019-05-30T16:07:45.790Z,1.20
2019-05-30T16:10:12.975Z,1.20
2019-05-30T16:12:40.415Z,1.30
2019-05-30T16:15:07.592Z,1.20
2019-05-30T16:17:34.632Z,1.30
2019-05-30T16:20:01.667Z,1.50
2019-05-30T16:22:30.087Z,1.22
2019-05-30T16:24:57.878Z,1.25
2019-05-30T16:27:26.096Z,1.47
2019-05-30T16:29:53.433Z,1.32
2019-05-30T16:32:20.487Z,1.32
2019-05-30T16:34:47.521Z,1.50
2019-05-30T16:42:23.768Z,1.60
2019-05-30T16:44:50.875Z,1.20
2019-05-30T16:47:18.420Z,1.40
2019-05-30T16:49:45.452Z,1.30
2019-05-30T16:52:12.843Z,1.30
2019-05-30T16:54:39.929Z,1.47
2019-05-30T16:57:06.966Z,1.30
2019-05-30T16:59:34.012Z,1.40
2019-05-30T17:02:01.347Z,1.42
2019-05-30T17:04:28.392Z,1.30
2019-05-30T17:06:55.425Z,1.47
2019-05-30T17:09:23.493Z,1.30
2019-05-30T17:11:50.965Z,1.30
2019-05-30T17:14:18.012Z,1.32
2019-05-30T17:16:45.050Z,1.30
2019-05-30T17:19:12.536Z,1.70
2019-05-30T17:21:39.604Z,1.60
2019-05-30T17:24:06.621Z,1.40
2019-05-30T17:26:34.731Z,1.72
2019-05-30T17:29:01.784Z,1.70
2019-05-30T17:31:28.845Z,1.30
2019-05-30T17:33:55.977Z,1.20
2019-05-30T17:36:24.197Z,1.35
2019-05-30T17:38:51.312Z,1.52
2019-05-30T17:41:18.728Z,1.30
2019-05-30T17:43:45.744Z,1.37
2019-05-30T17:46:12.781Z,1.80
2019-05-30T17:48:39.833Z,1.55
2019-05-30T17:51:06.864Z,1.37
2019-05-30T17:53:33.915Z,1.50
2019-05-30T17:56:00.950Z,1.55
2019-05-30T17:58:28.358Z,1.40
2019-05-30T18:00:57.266Z,1.95
2019-05-30T18:03:24.552Z,1.50
2019-05-30T18:05:51.585Z,1.40
2019-05-30T18:08:18.637Z,1.55
2019-05-30T18:10:53.781Z,1.62
2019-05-30T18:13:14.409Z,1.60
2019-05-30T18:15:41.793Z,1.50
2019-05-30T18:18:09.150Z,1.47
2019-05-30T18:20:47.733Z,1.80
2019-05-30T18:23:05.288Z,1.75
2019-05-30T18:25:32.336Z,1.90
2019-05-30T18:27:59.375Z,1.80
2019-05-30T18:30:26.420Z,1.70
2019-05-30T18:32:53.454Z,1.57
2019-05-30T18:35:20.503Z,1.92
2019-05-30T18:37:47.531Z,1.87
2019-05-30T18:40:14.931Z,2.00
2019-05-30T18:42:42.019Z,1.90
2019-05-30T18:45:09.445Z,2.08
2019-05-30T18:47:36.478Z,1.77
2019-05-30T18:50:03.519Z,1.87
2019-05-30T18:52:30.564Z,2.00
2019-05-30T18:54:57.614Z,1.87
2019-05-30T18:57:24.653Z,1.62
2019-05-30T18:59:52.028Z,1.90
2019-05-30T19:02:19.065Z,1.80
2019-05-30T19:04:46.437Z,1.60
2019-05-30T19:07:13.470Z,1.50
2019-05-30T19:09:40.590Z,1.50
2019-05-30T19:12:07.552Z,1.70
2019-05-30T19:14:37.121Z,1.80
2019-05-30T19:17:03.628Z,1.80
2019-05-30T19:19:31.872Z,1.60
2019-05-30T19:21:58.859Z,1.47
2019-05-30T19:24:26.060Z,1.75
2019-05-30T19:26:53.120Z,1.52
2019-05-30T19:29:20.195Z,1.70
2019-05-30T19:31:47.228Z,1.67
2019-05-30T19:34:14.507Z,1.37
2019-05-30T19:36:41.560Z,1.55
2019-05-30T19:39:08.593Z,1.60
2019-05-30T19:41:52.629Z,1.70
2019-05-30T19:44:04.373Z,1.70
2019-05-30T19:46:32.275Z,1.70
2019-05-30T19:48:59.372Z,1.62
2019-05-30T19:51:26.694Z,1.37
2019-05-30T19:53:54.054Z,1.92
2019-05-30T19:56:21.101Z,1.60
2019-05-30T19:58:48.143Z,1.52
2019-05-30T20:01:15.198Z,1.70
2019-05-30T20:03:46.713Z,1.70
2019-05-30T20:06:11.337Z,1.77
2019-05-30T20:08:51.319Z,1.90
2019-05-30T20:11:07.481Z,1.80
2019-05-30T20:13:35.043Z,1.50
2019-05-30T20:16:02.218Z,1.55
2019-05-30T20:18:29.253Z,1.42
2019-05-30T20:20:57.913Z,1.60
2019-05-30T20:23:25.033Z,1.95
2019-05-30T20:25:52.086Z,1.80
2019-05-30T20:28:19.129Z,1.65
2019-05-30T20:30:46.525Z,1.72
2019-05-30T20:33:13.571Z,1.60
2019-05-30T20:35:41.748Z,1.80
2019-05-30T20:38:09.720Z,1.65
2019-05-30T20:40:36.954Z,1.90
2019-05-30T20:43:04.079Z,1.70
2019-05-30T20:45:31.113Z,1.77
2019-05-30T20:47:58.157Z,1.90
2019-05-30T20:50:25.200Z,1.47
2019-05-30T20:52:52.236Z,1.60
2019-05-30T20:55:19.838Z,1.70
2019-05-30T20:57:47.042Z,1.62
2019-05-30T21:00:14.078Z,1.35
2019-05-30T21:02:41.298Z,1.60
2019-05-30T21:05:08.584Z,1.50
2019-05-30T21:07:35.991Z,1.62
2019-05-30T21:10:02.971Z,1.40
2019-05-30T21:12:37.741Z,1.60
2019-05-30T21:14:59.086Z,1.70
2019-05-30T21:17:26.136Z,1.57
2019-05-30T21:19:53.164Z,1.42
2019-05-30T21:22:20.469Z,1.57
2019-05-30T21:24:47.825Z,1.42
2019-05-30T21:27:14.877Z,1.45
2019-05-30T21:29:43.085Z,1.40
2019-05-30T21:32:10.608Z,1.35
2019-05-30T21:34:37.987Z,1.45
2019-05-30T21:37:05.548Z,1.35
2019-05-30T21:39:32.569Z,1.50
2019-05-30T21:41:59.623Z,1.40
2019-05-30T21:44:26.659Z,1.40
2019-05-30T21:46:53.788Z,1.32
2019-05-30T21:49:20.810Z,1.25
2019-05-30T21:51:47.861Z,1.20
2019-05-30T21:54:14.897Z,1.10
2019-05-30T21:56:41.994Z,1.15
2019-05-30T21:59:08.986Z,1.17
2019-05-30T22:01:36.022Z,1.30
2019-05-30T22:04:03.316Z,1.30
2019-05-30T22:06:30.420Z,1.17
2019-05-30T22:08:57.477Z,2.08
2019-05-30T22:11:24.510Z,1.45
2019-05-30T22:13:52.071Z,1.10
2019-05-30T22:16:19.064Z,1.40
2019-05-30T22:18:46.115Z,1.30
2019-05-30T22:21:13.148Z,1.25
2019-05-30T22:23:40.561Z,1.30
2019-05-30T22:26:07.591Z,1.50
2019-05-30T22:28:34.645Z,1.30
2019-05-30T22:31:01.679Z,1.40
2019-05-30T22:33:28.973Z,1.40
2019-05-30T22:35:56.004Z,1.50
2019-05-30T22:38:23.362Z,1.40
2019-05-30T22:40:50.397Z,1.30
2019-05-30T22:43:25.172Z,1.37
2019-05-30T22:45:48.186Z,1.45
2019-05-30T22:48:15.245Z,1.30
2019-05-30T22:50:42.289Z,1.30
2019-05-30T22:53:09.336Z,1.02
2019-05-30T22:55:36.375Z,1.20
2019-05-30T22:58:03.424Z,1.47
2019-05-30T23:00:30.458Z,1.22
2019-05-30T23:02:57.497Z,1.37
2019-05-30T23:05:24.793Z,1.40
2019-05-30T23:07:51.831Z,1.30
2019-05-30T23:10:18.877Z,1.45
2019-05-30T23:12:46.231Z,1.50
2019-05-30T23:15:13.275Z,1.05
2019-05-30T23:17:40.314Z,1.47
2019-05-30T23:20:07.362Z,1.30
2019-05-30T23:22:34.397Z,1.37
2019-05-30T23:25:01.473Z,1.20
2019-05-30T23:27:28.485Z,1.27
2019-05-30T23:29:55.952Z,1.40
2019-05-30T23:32:23.143Z,1.20
2019-05-30T23:34:50.227Z,1.30
2019-05-30T23:37:17.225Z,1.30
2019-05-30T23:39:44.410Z,1.45
2019-05-30T23:42:11.453Z,1.25
2019-05-30T23:44:38.499Z,1.45
2019-05-30T23:47:05.855Z,1.22
2019-05-30T23:49:32.869Z,1.45
2019-05-30T23:52:00.427Z,1.40
2019-05-30T23:54:28.710Z,1.42
2019-05-30T23:56:56.490Z,1.35
2019-05-30T23:59:24.553Z,1.55
